sensor_id;sensor_type;location;lat;lon;timestamp;pressure;altitude;pressure_sealevel;temperature
4421;BMP180;11824;51.178;13.546;2022-09-13T00:01:11;99989.00;;;12.80
4421;BMP180;11824;51.178;13.546;2022-09-13T00:03:39;99991.00;;;12.70
4421;BMP180;11824;51.178;13.546;2022-09-13T00:06:11;99989.00;;;12.70
4421;BMP180;11824;51.178;13.546;2022-09-13T00:08:40;99988.00;;;12.70
4421;BMP180;11824;51.178;13.546;2022-09-13T00:11:15;99986.00;;;12.60
4421;BMP180;11824;51.178;13.546;2022-09-13T00:13:44;99977.00;;;12.60
4421;BMP180;11824;51.178;13.546;2022-09-13T00:16:14;99974.00;;;12.60
4421;BMP180;11824;51.178;13.546;2022-09-13T00:18:43;99976.00;;;12.60
4421;BMP180;11824;51.178;13.546;2022-09-13T00:21:15;99965.00;;;12.60
4421;BMP180;11824;51.178;13.546;2022-09-13T00:23:44;99967.00;;;12.60
4421;BMP180;11824;51.178;13.546;2022-09-13T00:26:16;99970.00;;;12.50
4421;BMP180;11824;51.178;13.546;2022-09-13T00:28:46;99966.00;;;12.50
4421;BMP180;11824;51.178;13.546;2022-09-13T00:31:16;99955.00;;;12.50
4421;BMP180;11824;51.178;13.546;2022-09-13T00:33:45;99959.00;;;12.50
4421;BMP180;11824;51.178;13.546;2022-09-13T00:36:16;99955.00;;;12.50
4421;BMP180;11824;51.178;13.546;2022-09-13T00:38:44;99948.00;;;12.40
4421;BMP180;11824;51.178;13.546;2022-09-13T00:41:15;99942.00;;;12.40
4421;BMP180;11824;51.178;13.546;2022-09-13T00:43:47;99942.00;;;12.40
4421;BMP180;11824;51.178;13.546;2022-09-13T00:46:20;99932.00;;;12.40
4421;BMP180;11824;51.178;13.546;2022-09-13T00:48:52;99935.00;;;12.40
4421;BMP180;11824;51.178;13.546;2022-09-13T00:51:24;99924.00;;;12.40
4421;BMP180;11824;51.178;13.546;2022-09-13T00:53:53;99932.00;;;12.40
4421;BMP180;11824;51.178;13.546;2022-09-13T00:56:29;99916.00;;;12.40
4421;BMP180;11824;51.178;13.546;2022-09-13T00:59:01;99922.00;;;12.40
4421;BMP180;11824;51.178;13.546;2022-09-13T01:01:39;99923.00;;;12.40
4421;BMP180;11824;51.178;13.546;2022-09-13T01:04:09;99924.00;;;12.40
4421;BMP180;11824;51.178;13.546;2022-09-13T01:06:41;99922.00;;;12.40
4421;BMP180;11824;51.178;13.546;2022-09-13T01:09:11;99916.00;;;12.40
4421;BMP180;11824;51.178;13.546;2022-09-13T01:11:44;99910.00;;;12.40
4421;BMP180;11824;51.178;13.546;2022-09-13T01:14:16;99905.00;;;12.40
4421;BMP180;11824;51.178;13.546;2022-09-13T01:16:45;99905.00;;;12.30
4421;BMP180;11824;51.178;13.546;2022-09-13T01:19:14;99902.00;;;12.30
4421;BMP180;11824;51.178;13.546;2022-09-13T01:22:17;99902.00;;;12.30
4421;BMP180;11824;51.178;13.546;2022-09-13T01:25:13;99890.00;;;12.30
4421;BMP180;11824;51.178;13.546;2022-09-13T01:30:39;99889.00;;;12.30
4421;BMP180;11824;51.178;13.546;2022-09-13T01:33:25;99877.00;;;12.30
4421;BMP180;11824;51.178;13.546;2022-09-13T01:39:04;99870.00;;;12.20
4421;BMP180;11824;51.178;13.546;2022-09-13T01:41:54;99872.00;;;12.10
4421;BMP180;11824;51.178;13.546;2022-09-13T01:44:36;99876.00;;;12.10
4421;BMP180;11824;51.178;13.546;2022-09-13T01:47:18;99864.00;;;12.10
4421;BMP180;11824;51.178;13.546;2022-09-13T01:49:59;99864.00;;;12.10
4421;BMP180;11824;51.178;13.546;2022-09-13T01:52:37;99868.00;;;12.00
4421;BMP180;11824;51.178;13.546;2022-09-13T01:55:15;99861.00;;;12.00
4421;BMP180;11824;51.178;13.546;2022-09-13T01:57:50;99864.00;;;12.10
4421;BMP180;11824;51.178;13.546;2022-09-13T02:00:21;99860.00;;;12.00
4421;BMP180;11824;51.178;13.546;2022-09-13T02:02:54;99863.00;;;12.00
4421;BMP180;11824;51.178;13.546;2022-09-13T02:05:31;99853.00;;;12.00
4421;BMP180;11824;51.178;13.546;2022-09-13T02:08:05;99848.00;;;12.00
4421;BMP180;11824;51.178;13.546;2022-09-13T02:10:40;99856.00;;;12.00
4421;BMP180;11824;51.178;13.546;2022-09-13T02:13:14;99855.00;;;12.00
4421;BMP180;11824;51.178;13.546;2022-09-13T02:15:46;99856.00;;;12.00
4421;BMP180;11824;51.178;13.546;2022-09-13T02:18:20;99850.00;;;12.00
4421;BMP180;11824;51.178;13.546;2022-09-13T02:20:53;99849.00;;;12.00
4421;BMP180;11824;51.178;13.546;2022-09-13T02:23:28;99845.00;;;11.90
4421;BMP180;11824;51.178;13.546;2022-09-13T02:26:01;99849.00;;;11.90
4421;BMP180;11824;51.178;13.546;2022-09-13T02:28:33;99852.00;;;11.90
4421;BMP180;11824;51.178;13.546;2022-09-13T02:31:03;99840.00;;;11.90
4421;BMP180;11824;51.178;13.546;2022-09-13T02:33:40;99846.00;;;11.80
4421;BMP180;11824;51.178;13.546;2022-09-13T02:36:13;99840.00;;;11.80
4421;BMP180;11824;51.178;13.546;2022-09-13T02:38:45;99844.00;;;11.80
4421;BMP180;11824;51.178;13.546;2022-09-13T02:41:20;99838.00;;;11.80
4421;BMP180;11824;51.178;13.546;2022-09-13T02:43:57;99836.00;;;11.80
4421;BMP180;11824;51.178;13.546;2022-09-13T02:46:47;99838.00;;;11.80
4421;BMP180;11824;51.178;13.546;2022-09-13T02:49:25;99840.00;;;11.80
4421;BMP180;11824;51.178;13.546;2022-09-13T02:52:05;99847.00;;;11.80
4421;BMP180;11824;51.178;13.546;2022-09-13T02:54:39;99824.00;;;11.70
4421;BMP180;11824;51.178;13.546;2022-09-13T02:57:13;99829.00;;;11.80
4421;BMP180;11824;51.178;13.546;2022-09-13T02:59:44;99831.00;;;11.80
4421;BMP180;11824;51.178;13.546;2022-09-13T03:02:14;99823.00;;;11.70
4421;BMP180;11824;51.178;13.546;2022-09-13T03:04:45;99817.00;;;11.70
4421;BMP180;11824;51.178;13.546;2022-09-13T03:07:16;99811.00;;;11.70
4421;BMP180;11824;51.178;13.546;2022-09-13T03:09:48;99804.00;;;11.70
4421;BMP180;11824;51.178;13.546;2022-09-13T03:12:29;99800.00;;;11.70
4421;BMP180;11824;51.178;13.546;2022-09-13T03:15:12;99792.00;;;11.70
4421;BMP180;11824;51.178;13.546;2022-09-13T03:17:52;99790.00;;;11.70
4421;BMP180;11824;51.178;13.546;2022-09-13T03:20:33;99787.00;;;11.70
4421;BMP180;11824;51.178;13.546;2022-09-13T03:23:14;99784.00;;;11.70
4421;BMP180;11824;51.178;13.546;2022-09-13T03:26:03;99782.00;;;11.70
4421;BMP180;11824;51.178;13.546;2022-09-13T03:28:41;99779.00;;;11.70
4421;BMP180;11824;51.178;13.546;2022-09-13T03:31:20;99777.00;;;11.80
4421;BMP180;11824;51.178;13.546;2022-09-13T03:33:57;99772.00;;;11.80
4421;BMP180;11824;51.178;13.546;2022-09-13T03:36:34;99779.00;;;11.80
4421;BMP180;11824;51.178;13.546;2022-09-13T03:39:10;99779.00;;;11.80
4421;BMP180;11824;51.178;13.546;2022-09-13T03:41:44;99778.00;;;11.90
4421;BMP180;11824;51.178;13.546;2022-09-13T03:44:15;99779.00;;;11.90
4421;BMP180;11824;51.178;13.546;2022-09-13T03:46:47;99776.00;;;11.90
4421;BMP180;11824;51.178;13.546;2022-09-13T03:49:19;99773.00;;;11.90
4421;BMP180;11824;51.178;13.546;2022-09-13T03:51:50;99781.00;;;11.90
4421;BMP180;11824;51.178;13.546;2022-09-13T03:54:22;99782.00;;;11.90
4421;BMP180;11824;51.178;13.546;2022-09-13T03:57:11;99794.00;;;11.80
4421;BMP180;11824;51.178;13.546;2022-09-13T03:59:44;99780.00;;;11.80
4421;BMP180;11824;51.178;13.546;2022-09-13T04:02:13;99781.00;;;11.80
4421;BMP180;11824;51.178;13.546;2022-09-13T04:04:43;99779.00;;;11.80
4421;BMP180;11824;51.178;13.546;2022-09-13T04:07:15;99784.00;;;11.70
4421;BMP180;11824;51.178;13.546;2022-09-13T04:09:44;99773.00;;;11.70
4421;BMP180;11824;51.178;13.546;2022-09-13T04:12:13;99771.00;;;11.70
4421;BMP180;11824;51.178;13.546;2022-09-13T04:14:41;99770.00;;;11.70
4421;BMP180;11824;51.178;13.546;2022-09-13T04:17:11;99765.00;;;11.60
4421;BMP180;11824;51.178;13.546;2022-09-13T04:19:39;99772.00;;;11.60
4421;BMP180;11824;51.178;13.546;2022-09-13T04:22:08;99765.00;;;11.60
4421;BMP180;11824;51.178;13.546;2022-09-13T04:24:38;99770.00;;;11.60
4421;BMP180;11824;51.178;13.546;2022-09-13T04:27:07;99780.00;;;11.60
4421;BMP180;11824;51.178;13.546;2022-09-13T04:29:35;99765.00;;;11.50
4421;BMP180;11824;51.178;13.546;2022-09-13T04:32:04;99765.00;;;11.50
4421;BMP180;11824;51.178;13.546;2022-09-13T04:34:32;99766.00;;;11.50
4421;BMP180;11824;51.178;13.546;2022-09-13T04:37:01;99772.00;;;11.50
4421;BMP180;11824;51.178;13.546;2022-09-13T04:39:30;99771.00;;;11.50
4421;BMP180;11824;51.178;13.546;2022-09-13T04:41:59;99769.00;;;11.50
4421;BMP180;11824;51.178;13.546;2022-09-13T04:44:28;99771.00;;;11.50
4421;BMP180;11824;51.178;13.546;2022-09-13T04:46:57;99768.00;;;11.50
4421;BMP180;11824;51.178;13.546;2022-09-13T04:49:26;99753.00;;;11.50
4421;BMP180;11824;51.178;13.546;2022-09-13T04:51:54;99768.00;;;11.60
4421;BMP180;11824;51.178;13.546;2022-09-13T04:54:23;99763.00;;;11.60
4421;BMP180;11824;51.178;13.546;2022-09-13T04:56:51;99765.00;;;11.60
4421;BMP180;11824;51.178;13.546;2022-09-13T04:59:22;99770.00;;;11.60
4421;BMP180;11824;51.178;13.546;2022-09-13T05:01:50;99758.00;;;11.70
4421;BMP180;11824;51.178;13.546;2022-09-13T05:04:19;99763.00;;;11.70
4421;BMP180;11824;51.178;13.546;2022-09-13T05:06:47;99754.00;;;11.80
4421;BMP180;11824;51.178;13.546;2022-09-13T05:09:16;99748.00;;;11.80
4421;BMP180;11824;51.178;13.546;2022-09-13T05:11:44;99760.00;;;11.90
4421;BMP180;11824;51.178;13.546;2022-09-13T05:14:13;99763.00;;;12.00
4421;BMP180;11824;51.178;13.546;2022-09-13T05:16:43;99752.00;;;12.10
4421;BMP180;11824;51.178;13.546;2022-09-13T05:19:12;99757.00;;;12.20
4421;BMP180;11824;51.178;13.546;2022-09-13T05:21:40;99759.00;;;12.30
4421;BMP180;11824;51.178;13.546;2022-09-13T05:24:09;99763.00;;;12.60
4421;BMP180;11824;51.178;13.546;2022-09-13T05:26:38;99753.00;;;13.00
4421;BMP180;11824;51.178;13.546;2022-09-13T05:29:06;99752.00;;;13.50
4421;BMP180;11824;51.178;13.546;2022-09-13T05:31:37;99752.00;;;14.00
4421;BMP180;11824;51.178;13.546;2022-09-13T05:34:08;99746.00;;;14.50
4421;BMP180;11824;51.178;13.546;2022-09-13T05:36:37;99753.00;;;14.90
4421;BMP180;11824;51.178;13.546;2022-09-13T05:39:09;99737.00;;;15.10
4421;BMP180;11824;51.178;13.546;2022-09-13T05:41:59;99740.00;;;15.20
4421;BMP180;11824;51.178;13.546;2022-09-13T05:44:27;99739.00;;;15.10
4421;BMP180;11824;51.178;13.546;2022-09-13T05:46:56;99740.00;;;15.10
4421;BMP180;11824;51.178;13.546;2022-09-13T05:49:26;99729.00;;;14.90
4421;BMP180;11824;51.178;13.546;2022-09-13T05:51:54;99731.00;;;14.80
4421;BMP180;11824;51.178;13.546;2022-09-13T05:54:23;99731.00;;;14.70
4421;BMP180;11824;51.178;13.546;2022-09-13T05:56:52;99718.00;;;14.70
4421;BMP180;11824;51.178;13.546;2022-09-13T05:59:23;99720.00;;;14.80
4421;BMP180;11824;51.178;13.546;2022-09-13T06:01:52;99722.00;;;15.10
4421;BMP180;11824;51.178;13.546;2022-09-13T06:04:20;99727.00;;;15.50
4421;BMP180;11824;51.178;13.546;2022-09-13T06:06:50;99724.00;;;15.90
4421;BMP180;11824;51.178;13.546;2022-09-13T06:09:19;99729.00;;;16.30
4421;BMP180;11824;51.178;13.546;2022-09-13T06:11:47;99719.00;;;16.60
4421;BMP180;11824;51.178;13.546;2022-09-13T06:14:16;99717.00;;;16.90
4421;BMP180;11824;51.178;13.546;2022-09-13T06:16:44;99712.00;;;17.10
4421;BMP180;11824;51.178;13.546;2022-09-13T06:19:13;99716.00;;;17.10
4421;BMP180;11824;51.178;13.546;2022-09-13T06:21:42;99723.00;;;17.10
4421;BMP180;11824;51.178;13.546;2022-09-13T06:24:12;99726.00;;;17.10
4421;BMP180;11824;51.178;13.546;2022-09-13T06:26:41;99721.00;;;17.00
4421;BMP180;11824;51.178;13.546;2022-09-13T06:29:10;99719.00;;;17.00
4421;BMP180;11824;51.178;13.546;2022-09-13T06:31:39;99731.00;;;17.00
4421;BMP180;11824;51.178;13.546;2022-09-13T06:34:11;99726.00;;;17.10
4421;BMP180;11824;51.178;13.546;2022-09-13T06:36:41;99720.00;;;17.20
4421;BMP180;11824;51.178;13.546;2022-09-13T06:39:11;99714.00;;;17.40
4421;BMP180;11824;51.178;13.546;2022-09-13T06:41:40;99715.00;;;17.40
4421;BMP180;11824;51.178;13.546;2022-09-13T06:44:09;99709.00;;;17.50
4421;BMP180;11824;51.178;13.546;2022-09-13T06:46:37;99712.00;;;17.60
4421;BMP180;11824;51.178;13.546;2022-09-13T06:49:06;99717.00;;;17.70
4421;BMP180;11824;51.178;13.546;2022-09-13T06:51:35;99705.00;;;17.80
4421;BMP180;11824;51.178;13.546;2022-09-13T06:54:04;99715.00;;;17.90
4421;BMP180;11824;51.178;13.546;2022-09-13T06:56:35;99712.00;;;18.00
4421;BMP180;11824;51.178;13.546;2022-09-13T06:59:06;99717.00;;;18.10
4421;BMP180;11824;51.178;13.546;2022-09-13T07:01:35;99719.00;;;18.20
4421;BMP180;11824;51.178;13.546;2022-09-13T07:04:06;99719.00;;;18.40
4421;BMP180;11824;51.178;13.546;2022-09-13T07:06:37;99719.00;;;18.50
4421;BMP180;11824;51.178;13.546;2022-09-13T07:09:08;99706.00;;;18.60
4421;BMP180;11824;51.178;13.546;2022-09-13T07:11:40;99703.00;;;18.80
4421;BMP180;11824;51.178;13.546;2022-09-13T07:14:13;99705.00;;;19.00
4421;BMP180;11824;51.178;13.546;2022-09-13T07:16:42;99708.00;;;19.10
4421;BMP180;11824;51.178;13.546;2022-09-13T07:19:13;99712.00;;;19.20
4421;BMP180;11824;51.178;13.546;2022-09-13T07:21:43;99717.00;;;19.20
4421;BMP180;11824;51.178;13.546;2022-09-13T07:24:11;99716.00;;;19.20
4421;BMP180;11824;51.178;13.546;2022-09-13T07:26:41;99719.00;;;19.10
4421;BMP180;11824;51.178;13.546;2022-09-13T07:29:12;99702.00;;;19.10
4421;BMP180;11824;51.178;13.546;2022-09-13T07:31:42;99709.00;;;19.00
4421;BMP180;11824;51.178;13.546;2022-09-13T07:34:13;99713.00;;;18.90
4421;BMP180;11824;51.178;13.546;2022-09-13T07:36:43;99702.00;;;18.80
4421;BMP180;11824;51.178;13.546;2022-09-13T07:39:13;99715.00;;;18.70
4421;BMP180;11824;51.178;13.546;2022-09-13T07:41:50;99707.00;;;18.70
4421;BMP180;11824;51.178;13.546;2022-09-13T07:44:19;99728.00;;;18.60
4421;BMP180;11824;51.178;13.546;2022-09-13T07:46:49;99734.00;;;18.50
4421;BMP180;11824;51.178;13.546;2022-09-13T07:49:18;99721.00;;;18.50
4421;BMP180;11824;51.178;13.546;2022-09-13T07:51:47;99731.00;;;18.40
4421;BMP180;11824;51.178;13.546;2022-09-13T07:54:18;99733.00;;;18.40
4421;BMP180;11824;51.178;13.546;2022-09-13T07:56:48;99736.00;;;18.30
4421;BMP180;11824;51.178;13.546;2022-09-13T07:59:18;99747.00;;;18.30
4421;BMP180;11824;51.178;13.546;2022-09-13T08:01:48;99748.00;;;18.30
4421;BMP180;11824;51.178;13.546;2022-09-13T08:04:18;99749.00;;;18.30
4421;BMP180;11824;51.178;13.546;2022-09-13T08:06:47;99759.00;;;18.30
4421;BMP180;11824;51.178;13.546;2022-09-13T08:09:16;99749.00;;;18.30
4421;BMP180;11824;51.178;13.546;2022-09-13T08:11:47;99750.00;;;18.40
4421;BMP180;11824;51.178;13.546;2022-09-13T08:14:18;99755.00;;;18.50
4421;BMP180;11824;51.178;13.546;2022-09-13T08:16:47;99761.00;;;18.60
4421;BMP180;11824;51.178;13.546;2022-09-13T08:19:18;99752.00;;;18.70
4421;BMP180;11824;51.178;13.546;2022-09-13T08:21:46;99756.00;;;18.80
4421;BMP180;11824;51.178;13.546;2022-09-13T08:24:16;99751.00;;;18.90
4421;BMP180;11824;51.178;13.546;2022-09-13T08:26:46;99741.00;;;19.00
4421;BMP180;11824;51.178;13.546;2022-09-13T08:29:16;99729.00;;;19.00
4421;BMP180;11824;51.178;13.546;2022-09-13T08:31:44;99741.00;;;19.10
4421;BMP180;11824;51.178;13.546;2022-09-13T08:34:14;99733.00;;;19.20
4421;BMP180;11824;51.178;13.546;2022-09-13T08:36:44;99731.00;;;19.30
4421;BMP180;11824;51.178;13.546;2022-09-13T08:39:13;99729.00;;;19.40
4421;BMP180;11824;51.178;13.546;2022-09-13T08:44:54;99723.00;;;19.60
4421;BMP180;11824;51.178;13.546;2022-09-13T08:47:33;99722.00;;;19.70
4421;BMP180;11824;51.178;13.546;2022-09-13T08:50:12;99724.00;;;19.70
4421;BMP180;11824;51.178;13.546;2022-09-13T08:52:48;99720.00;;;19.80
4421;BMP180;11824;51.178;13.546;2022-09-13T08:55:27;99725.00;;;19.80
4421;BMP180;11824;51.178;13.546;2022-09-13T08:58:24;99720.00;;;19.90
4421;BMP180;11824;51.178;13.546;2022-09-13T09:01:04;99711.00;;;20.00
4421;BMP180;11824;51.178;13.546;2022-09-13T09:03:41;99703.00;;;20.10
4421;BMP180;11824;51.178;13.546;2022-09-13T09:06:13;99705.00;;;20.30
4421;BMP180;11824;51.178;13.546;2022-09-13T09:08:46;99712.00;;;20.50
4421;BMP180;11824;51.178;13.546;2022-09-13T09:11:25;99712.00;;;20.70
4421;BMP180;11824;51.178;13.546;2022-09-13T09:14:02;99719.00;;;20.80
4421;BMP180;11824;51.178;13.546;2022-09-13T09:16:38;99720.00;;;20.90
4421;BMP180;11824;51.178;13.546;2022-09-13T09:19:16;99721.00;;;21.00
4421;BMP180;11824;51.178;13.546;2022-09-13T09:21:47;99716.00;;;21.10
4421;BMP180;11824;51.178;13.546;2022-09-13T09:24:19;99727.00;;;21.30
4421;BMP180;11824;51.178;13.546;2022-09-13T09:26:49;99728.00;;;21.40
4421;BMP180;11824;51.178;13.546;2022-09-13T09:29:19;99721.00;;;21.50
4421;BMP180;11824;51.178;13.546;2022-09-13T09:32:05;99729.00;;;21.60
4421;BMP180;11824;51.178;13.546;2022-09-13T09:34:46;99723.00;;;21.70
4421;BMP180;11824;51.178;13.546;2022-09-13T09:37:20;99714.00;;;21.90
4421;BMP180;11824;51.178;13.546;2022-09-13T09:39:52;99717.00;;;22.00
4421;BMP180;11824;51.178;13.546;2022-09-13T09:42:23;99705.00;;;22.10
4421;BMP180;11824;51.178;13.546;2022-09-13T09:44:54;99703.00;;;22.10
4421;BMP180;11824;51.178;13.546;2022-09-13T09:47:27;99700.00;;;22.20
4421;BMP180;11824;51.178;13.546;2022-09-13T09:50:00;99695.00;;;22.40
4421;BMP180;11824;51.178;13.546;2022-09-13T09:52:43;99684.00;;;22.50
4421;BMP180;11824;51.178;13.546;2022-09-13T09:55:23;99676.00;;;22.60
4421;BMP180;11824;51.178;13.546;2022-09-13T09:57:55;99681.00;;;22.80
4421;BMP180;11824;51.178;13.546;2022-09-13T10:00:25;99671.00;;;22.90
4421;BMP180;11824;51.178;13.546;2022-09-13T10:02:57;99665.00;;;23.10
4421;BMP180;11824;51.178;13.546;2022-09-13T10:05:27;99656.00;;;23.20
4421;BMP180;11824;51.178;13.546;2022-09-13T10:07:59;99660.00;;;23.40
4421;BMP180;11824;51.178;13.546;2022-09-13T10:10:36;99653.00;;;23.50
4421;BMP180;11824;51.178;13.546;2022-09-13T10:13:13;99662.00;;;23.60
4421;BMP180;11824;51.178;13.546;2022-09-13T10:15:52;99661.00;;;23.70
4421;BMP180;11824;51.178;13.546;2022-09-13T10:18:24;99656.00;;;23.70
4421;BMP180;11824;51.178;13.546;2022-09-13T10:21:22;99651.00;;;23.70
4421;BMP180;11824;51.178;13.546;2022-09-13T10:23:52;99655.00;;;23.70
4421;BMP180;11824;51.178;13.546;2022-09-13T10:26:40;99651.00;;;23.70
4421;BMP180;11824;51.178;13.546;2022-09-13T10:29:14;99653.00;;;23.80
4421;BMP180;11824;51.178;13.546;2022-09-13T10:31:45;99655.00;;;23.90
4421;BMP180;11824;51.178;13.546;2022-09-13T10:34:20;99652.00;;;23.90
4421;BMP180;11824;51.178;13.546;2022-09-13T10:36:55;99654.00;;;24.00
4421;BMP180;11824;51.178;13.546;2022-09-13T10:39:25;99649.00;;;24.00
4421;BMP180;11824;51.178;13.546;2022-09-13T10:41:55;99646.00;;;24.00
4421;BMP180;11824;51.178;13.546;2022-09-13T10:44:31;99636.00;;;24.00
4421;BMP180;11824;51.178;13.546;2022-09-13T10:47:02;99638.00;;;24.00
4421;BMP180;11824;51.178;13.546;2022-09-13T10:49:37;99647.00;;;24.00
4421;BMP180;11824;51.178;13.546;2022-09-13T10:52:32;99647.00;;;24.10
4421;BMP180;11824;51.178;13.546;2022-09-13T10:55:29;99628.00;;;24.10
4421;BMP180;11824;51.178;13.546;2022-09-13T10:58:25;99634.00;;;24.10
4421;BMP180;11824;51.178;13.546;2022-09-13T11:01:32;99634.00;;;24.00
4421;BMP180;11824;51.178;13.546;2022-09-13T11:04:32;99629.00;;;24.00
4421;BMP180;11824;51.178;13.546;2022-09-13T11:09:59;99627.00;;;24.10
4421;BMP180;11824;51.178;13.546;2022-09-13T11:12:37;99627.00;;;24.10
4421;BMP180;11824;51.178;13.546;2022-09-13T11:15:19;99623.00;;;24.20
4421;BMP180;11824;51.178;13.546;2022-09-13T11:21:08;99612.00;;;24.30
4421;BMP180;11824;51.178;13.546;2022-09-13T11:23:55;99611.00;;;24.30
4421;BMP180;11824;51.178;13.546;2022-09-13T11:26:36;99618.00;;;24.30
4421;BMP180;11824;51.178;13.546;2022-09-13T11:29:16;99607.00;;;24.30
4421;BMP180;11824;51.178;13.546;2022-09-13T11:31:54;99601.00;;;24.30
4421;BMP180;11824;51.178;13.546;2022-09-13T11:34:35;99609.00;;;24.30
4421;BMP180;11824;51.178;13.546;2022-09-13T11:37:21;99610.00;;;24.30
4421;BMP180;11824;51.178;13.546;2022-09-13T11:40:02;99604.00;;;24.30
4421;BMP180;11824;51.178;13.546;2022-09-13T11:42:44;99601.00;;;24.40
4421;BMP180;11824;51.178;13.546;2022-09-13T11:45:21;99605.00;;;24.40
4421;BMP180;11824;51.178;13.546;2022-09-13T11:50:57;99610.00;;;24.70
4421;BMP180;11824;51.178;13.546;2022-09-13T11:56:37;99602.00;;;24.80
4421;BMP180;11824;51.178;13.546;2022-09-13T11:59:14;99590.00;;;24.90
4421;BMP180;11824;51.178;13.546;2022-09-13T12:01:50;99592.00;;;25.00
4421;BMP180;11824;51.178;13.546;2022-09-13T12:04:24;99591.00;;;25.00
4421;BMP180;11824;51.178;13.546;2022-09-13T12:07:02;99590.00;;;25.10
4421;BMP180;11824;51.178;13.546;2022-09-13T12:09:34;99585.00;;;25.10
4421;BMP180;11824;51.178;13.546;2022-09-13T12:12:08;99586.00;;;25.10
4421;BMP180;11824;51.178;13.546;2022-09-13T12:14:43;99576.00;;;25.10
4421;BMP180;11824;51.178;13.546;2022-09-13T12:17:23;99581.00;;;25.10
4421;BMP180;11824;51.178;13.546;2022-09-13T12:19:55;99572.00;;;25.20
4421;BMP180;11824;51.178;13.546;2022-09-13T12:22:28;99577.00;;;25.20
4421;BMP180;11824;51.178;13.546;2022-09-13T12:25:01;99573.00;;;25.30
4421;BMP180;11824;51.178;13.546;2022-09-13T12:27:37;99578.00;;;25.40
4421;BMP180;11824;51.178;13.546;2022-09-13T12:30:13;99570.00;;;25.50
4421;BMP180;11824;51.178;13.546;2022-09-13T12:32:43;99560.00;;;25.60
4421;BMP180;11824;51.178;13.546;2022-09-13T12:35:21;99573.00;;;25.60
4421;BMP180;11824;51.178;13.546;2022-09-13T12:38:09;99568.00;;;25.60
4421;BMP180;11824;51.178;13.546;2022-09-13T12:41:09;99566.00;;;25.60
4421;BMP180;11824;51.178;13.546;2022-09-13T12:44:04;99561.00;;;25.70
4421;BMP180;11824;51.178;13.546;2022-09-13T12:46:49;99549.00;;;25.60
4421;BMP180;11824;51.178;13.546;2022-09-13T12:49:36;99547.00;;;25.60
4421;BMP180;11824;51.178;13.546;2022-09-13T12:52:28;99552.00;;;25.60
4421;BMP180;11824;51.178;13.546;2022-09-13T12:55:18;99556.00;;;25.60
4421;BMP180;11824;51.178;13.546;2022-09-13T12:58:37;99548.00;;;25.60
4421;BMP180;11824;51.178;13.546;2022-09-13T13:01:14;99541.00;;;25.50
4421;BMP180;11824;51.178;13.546;2022-09-13T13:03:50;99552.00;;;25.40
4421;BMP180;11824;51.178;13.546;2022-09-13T13:06:29;99540.00;;;25.40
4421;BMP180;11824;51.178;13.546;2022-09-13T13:09:03;99550.00;;;25.30
4421;BMP180;11824;51.178;13.546;2022-09-13T13:11:42;99544.00;;;25.30
4421;BMP180;11824;51.178;13.546;2022-09-13T13:14:30;99541.00;;;25.20
4421;BMP180;11824;51.178;13.546;2022-09-13T13:17:38;99543.00;;;25.20
4421;BMP180;11824;51.178;13.546;2022-09-13T13:20:38;99538.00;;;25.20
4421;BMP180;11824;51.178;13.546;2022-09-13T13:23:20;99543.00;;;25.10
4421;BMP180;11824;51.178;13.546;2022-09-13T13:25:58;99544.00;;;25.10
4421;BMP180;11824;51.178;13.546;2022-09-13T13:28:50;99544.00;;;25.10
4421;BMP180;11824;51.178;13.546;2022-09-13T13:31:36;99542.00;;;25.10
4421;BMP180;11824;51.178;13.546;2022-09-13T13:34:29;99541.00;;;25.00
4421;BMP180;11824;51.178;13.546;2022-09-13T13:37:01;99541.00;;;25.00
4421;BMP180;11824;51.178;13.546;2022-09-13T13:39:35;99540.00;;;25.10
4421;BMP180;11824;51.178;13.546;2022-09-13T13:42:13;99544.00;;;25.10
4421;BMP180;11824;51.178;13.546;2022-09-13T13:45:05;99545.00;;;25.10
4421;BMP180;11824;51.178;13.546;2022-09-13T13:51:15;99538.00;;;25.10
4421;BMP180;11824;51.178;13.546;2022-09-13T13:53:46;99539.00;;;25.10
4421;BMP180;11824;51.178;13.546;2022-09-13T13:56:25;99539.00;;;25.10
4421;BMP180;11824;51.178;13.546;2022-09-13T13:59:04;99541.00;;;25.10
4421;BMP180;11824;51.178;13.546;2022-09-13T14:01:37;99538.00;;;25.10
4421;BMP180;11824;51.178;13.546;2022-09-13T14:04:37;99534.00;;;25.00
4421;BMP180;11824;51.178;13.546;2022-09-13T14:07:22;99534.00;;;25.00
4421;BMP180;11824;51.178;13.546;2022-09-13T14:10:00;99534.00;;;25.00
4421;BMP180;11824;51.178;13.546;2022-09-13T14:12:37;99527.00;;;24.90
4421;BMP180;11824;51.178;13.546;2022-09-13T14:15:23;99523.00;;;24.90
4421;BMP180;11824;51.178;13.546;2022-09-13T14:18:31;99524.00;;;24.90
4421;BMP180;11824;51.178;13.546;2022-09-13T14:21:04;99517.00;;;24.90
4421;BMP180;11824;51.178;13.546;2022-09-13T14:23:46;99513.00;;;24.90
4421;BMP180;11824;51.178;13.546;2022-09-13T14:26:14;99509.00;;;24.90
4421;BMP180;11824;51.178;13.546;2022-09-13T14:28:43;99509.00;;;24.90
4421;BMP180;11824;51.178;13.546;2022-09-13T14:31:17;99498.00;;;24.90
4421;BMP180;11824;51.178;13.546;2022-09-13T14:33:47;99508.00;;;24.80
4421;BMP180;11824;51.178;13.546;2022-09-13T14:36:18;99496.00;;;24.80
4421;BMP180;11824;51.178;13.546;2022-09-13T14:38:50;99504.00;;;24.80
4421;BMP180;11824;51.178;13.546;2022-09-13T14:41:29;99500.00;;;24.90
4421;BMP180;11824;51.178;13.546;2022-09-13T14:44:14;99495.00;;;24.90
4421;BMP180;11824;51.178;13.546;2022-09-13T14:46:57;99501.00;;;24.90
4421;BMP180;11824;51.178;13.546;2022-09-13T14:49:32;99494.00;;;24.90
4421;BMP180;11824;51.178;13.546;2022-09-13T14:52:04;99503.00;;;24.90
4421;BMP180;11824;51.178;13.546;2022-09-13T14:54:38;99505.00;;;24.90
4421;BMP180;11824;51.178;13.546;2022-09-13T14:57:21;99499.00;;;24.80
4421;BMP180;11824;51.178;13.546;2022-09-13T14:59:52;99501.00;;;24.80
4421;BMP180;11824;51.178;13.546;2022-09-13T15:02:24;99495.00;;;24.70
4421;BMP180;11824;51.178;13.546;2022-09-13T15:04:54;99505.00;;;24.70
4421;BMP180;11824;51.178;13.546;2022-09-13T15:07:29;99500.00;;;24.60
4421;BMP180;11824;51.178;13.546;2022-09-13T15:10:08;99491.00;;;24.50
4421;BMP180;11824;51.178;13.546;2022-09-13T15:12:47;99506.00;;;24.40
4421;BMP180;11824;51.178;13.546;2022-09-13T15:15:32;99501.00;;;24.30
4421;BMP180;11824;51.178;13.546;2022-09-13T15:18:03;99495.00;;;24.20